Time;durP1;ratioP1;P1;durP2;ratioP2;P2;SDS_P1;SDS_P2;PMS_P1;PMS_P2;Temp;Humidity;BMP_temperature;BMP_pressure;BME280_temperature;BME280_humidity;BME280_pressure;Samples;Min_cycle;Max_cycle;Signal;HPM_P1;HPM_P2
2023/08/04 00:04:19;;;;;;;2.78;1.35;;;;;;;21.21;50.65;100994.50;16117845;19;129361;-48
2023/08/04 00:09:41;;;;;;;4.38;1.20;;;;;;;21.20;50.48;101005.91;16115541;19;130661;-48
2023/08/04 00:15:04;;;;;;;5.03;1.33;;;;;;;21.19;50.85;101005.03;16115099;19;130145;-48
2023/08/04 00:20:26;;;;;;;3.75;1.10;;;;;;;21.19;50.56;101007.00;16114778;19;130374;-49
2023/08/04 00:25:48;;;;;;;4.30;1.02;;;;;;;21.17;50.71;101010.03;16117951;19;130954;-50
2023/08/04 00:31:12;;;;;;;4.35;1.13;;;;;;;21.17;50.50;101007.25;16116249;19;131089;-49
2023/08/04 00:36:35;;;;;;;4.90;1.17;;;;;;;21.16;50.78;101013.94;16115502;19;132126;-46
2023/08/04 00:41:57;;;;;;;3.22;0.88;;;;;;;21.15;50.80;101026.16;16114916;19;131190;-46
2023/08/04 00:47:20;;;;;;;3.83;1.27;;;;;;;21.15;50.67;101020.59;16115934;19;129868;-50
2023/08/04 00:52:44;;;;;;;3.55;1.00;;;;;;;21.15;50.31;101028.94;16119626;19;129802;-46
2023/08/04 00:58:06;;;;;;;3.67;1.17;;;;;;;21.13;50.51;101033.06;16117155;19;129306;-47
2023/08/04 01:03:28;;;;;;;2.97;0.88;;;;;;;21.13;50.74;101033.91;16109451;19;131707;-51
2023/08/04 01:09:29;;;;;;;3.47;0.80;;;;;;;21.12;50.22;101032.25;16113720;19;130467;-50
2023/08/04 01:14:53;;;;;;;4.50;1.23;;;;;;;21.11;50.77;101036.13;16103902;19;131278;-52
2023/08/04 01:20:15;;;;;;;3.63;0.98;;;;;;;21.10;50.75;101030.81;16107196;19;129539;-51
2023/08/04 01:25:38;;;;;;;1.80;0.80;;;;;;;21.09;50.56;101038.31;16105441;19;130879;-49
2023/08/04 01:31:01;;;;;;;1.67;0.80;;;;;;;21.08;50.27;101039.41;16102752;19;130673;-47
2023/08/04 01:36:23;;;;;;;4.60;0.80;;;;;;;21.08;50.27;101035.81;16100000;19;130344;-47
2023/08/04 01:41:45;;;;;;;3.53;0.65;;;;;;;21.08;50.69;101041.38;16105089;19;130913;-49
2023/08/04 01:47:08;;;;;;;3.97;1.02;;;;;;;21.08;50.44;101046.94;16103407;19;129976;-51
2023/08/04 01:52:30;;;;;;;3.50;0.65;;;;;;;21.05;50.57;101048.28;16115036;19;129608;-51
2023/08/04 01:57:51;;;;;;;2.15;0.70;;;;;;;21.04;50.51;101047.44;16111682;19;129686;-51
2023/08/04 02:03:13;;;;;;;2.13;0.80;;;;;;;21.04;50.40;101046.63;16110434;19;132648;-49
2023/08/04 02:08:36;;;;;;;2.72;0.80;;;;;;;21.04;50.15;101057.75;16115202;19;130230;-48
2023/08/04 02:13:58;;;;;;;1.63;0.82;;;;;;;21.03;50.07;101061.63;16108812;19;131004;-47
2023/08/04 02:19:22;;;;;;;2.30;0.60;;;;;;;21.02;50.62;101065.50;16106086;19;130991;-50
2023/08/04 02:24:44;;;;;;;1.33;0.60;;;;;;;21.02;50.40;101073.84;16109014;19;130911;-52
2023/08/04 02:30:06;;;;;;;2.63;0.73;;;;;;;21.01;50.32;101074.94;16111682;19;129592;-49
2023/08/04 02:35:28;;;;;;;1.77;0.68;;;;;;;21.01;50.24;101075.78;16107052;19;130149;-48
2023/08/04 02:40:50;;;;;;;1.48;0.60;;;;;;;21.00;50.31;101073.25;16106623;19;130647;-52
2023/08/04 02:46:12;;;;;;;3.63;0.77;;;;;;;21.00;50.58;101071.31;16107788;19;129541;-48
2023/08/04 02:51:34;;;;;;;2.03;0.70;;;;;;;20.99;50.24;101088.25;16105916;19;130670;-47
2023/08/04 02:56:56;;;;;;;2.03;0.70;;;;;;;20.98;50.64;101081.00;16105010;19;129513;-51
2023/08/04 03:02:19;;;;;;;2.03;0.80;;;;;;;20.98;50.06;101086.56;16103925;19;131014;-49
2023/08/04 03:07:42;;;;;;;3.33;1.00;;;;;;;20.97;50.61;101080.19;16105558;19;131418;-46
2023/08/04 03:13:04;;;;;;;2.58;0.80;;;;;;;20.97;50.54;101079.34;16102997;19;129801;-46
2023/08/04 03:18:26;;;;;;;1.05;0.50;;;;;;;20.96;50.07;101083.22;16099516;19;130822;-50
2023/08/04 03:23:48;;;;;;;2.30;0.70;;;;;;;20.95;50.52;101093.50;16108683;19;130276;-50
2023/08/04 03:29:10;;;;;;;2.33;0.85;;;;;;;20.94;50.56;101091.81;16120588;19;129876;-48
2023/08/04 03:34:32;;;;;;;1.52;0.50;;;;;;;20.94;50.28;101090.97;16123062;19;129544;-50
2023/08/04 03:39:54;;;;;;;2.58;0.80;;;;;;;20.94;50.17;101107.66;16121813;19;131842;-49
2023/08/04 03:45:17;;;;;;;1.17;0.60;;;;;;;20.93;50.05;101100.41;16115101;19;130473;-50
2023/08/04 03:50:39;;;;;;;1.60;0.70;;;;;;;20.92;50.33;101099.56;16120175;19;129630;-46
2023/08/04 03:56:01;;;;;;;1.38;0.60;;;;;;;20.90;50.14;101107.34;16116996;19;131559;-49
2023/08/04 04:01:23;;;;;;;2.00;0.60;;;;;;;20.92;50.30;101109.88;16119462;19;129784;-46
2023/08/04 04:06:45;;;;;;;0.93;0.50;;;;;;;20.90;50.08;101113.75;16121332;19;130952;-47
2023/08/04 04:12:07;;;;;;;0.90;0.70;;;;;;;20.90;50.31;101112.91;16115788;19;130240;-46
2023/08/04 04:17:30;;;;;;;1.40;0.50;;;;;;;20.89;50.40;101117.63;16121084;19;129664;-50
2023/08/04 04:22:53;;;;;;;1.95;0.93;;;;;;;20.89;50.48;101117.63;16119809;19;131043;-50
2023/08/04 04:28:15;;;;;;;1.40;0.77;;;;;;;20.88;50.26;101115.94;16118898;19;129939;-50
2023/08/04 04:33:37;;;;;;;0.93;0.57;;;;;;;20.88;50.49;101129.84;16118902;19;130172;-45
2023/08/04 04:39:01;;;;;;;0.80;0.60;;;;;;;20.88;50.13;101124.28;16117983;19;130650;-51
2023/08/04 04:44:23;;;;;;;2.00;0.63;;;;;;;20.87;49.98;101125.38;16116708;19;129497;-50
2023/08/04 04:49:45;;;;;;;1.40;0.70;;;;;;;20.87;50.23;101127.31;16118098;19;129540;-51
2023/08/04 04:55:08;;;;;;;1.83;0.90;;;;;;;20.87;49.97;101135.66;16111767;19;130859;-48
2023/08/04 05:00:31;;;;;;;1.35;0.55;;;;;;;20.86;50.13;101151.50;16115751;19;129549;-52
2023/08/04 05:05:53;;;;;;;1.90;1.05;;;;;;;20.86;49.94;101156.25;16114429;19;130879;-53
2023/08/04 05:11:16;;;;;;;1.70;0.60;;;;;;;20.86;49.96;101162.63;16116150;19;130286;-52
2023/08/04 05:16:38;;;;;;;0.98;0.60;;;;;;;20.86;49.94;101161.81;16113522;19;130625;-52
2023/08/04 05:22:00;;;;;;;1.50;0.70;;;;;;;20.90;49.84;101163.81;16120044;19;130723;-55
2023/08/04 05:27:22;;;;;;;1.38;0.77;;;;;;;20.93;49.79;101168.00;16119696;19;129788;-51
2023/08/04 05:32:44;;;;;;;2.65;0.80;;;;;;;20.93;49.93;101169.94;16120723;19;130809;-51
2023/08/04 05:38:06;;;;;;;3.45;1.08;;;;;;;20.92;49.97;101177.44;16117839;19;129770;-54
2023/08/04 05:43:28;;;;;;;2.88;0.60;;;;;;;20.93;49.83;101184.69;16116382;19;129536;-54
2023/08/04 05:48:50;;;;;;;5.15;0.93;;;;;;;20.92;49.84;101187.75;16109028;19;129202;-52
2023/08/04 05:54:12;;;;;;;3.90;1.00;;;;;;;20.91;49.99;101181.31;16116616;19;131033;-54
2023/08/04 05:59:34;;;;;;;5.40;0.93;;;;;;;20.93;50.01;101198.59;16114932;19;134488;-52
2023/08/04 06:04:56;;;;;;;3.17;0.70;;;;;;;20.93;50.05;101201.38;16113867;19;129934;-49
2023/08/04 06:10:19;;;;;;;2.88;0.80;;;;;;;20.92;50.03;101207.22;16112147;19;130503;-52
2023/08/04 06:15:41;;;;;;;5.30;0.93;;;;;;;20.93;49.83;101211.66;16112880;19;131590;-52
2023/08/04 06:21:03;;;;;;;7.28;1.00;;;;;;;20.90;49.80;101219.44;16111113;19;130011;-52
2023/08/04 06:26:25;;;;;;;1.70;0.80;;;;;;;20.90;49.61;101225.00;16109869;19;130277;-50
2023/08/04 06:31:47;;;;;;;1.48;0.80;;;;;;;20.90;49.74;101233.34;16112913;19;130172;-52
2023/08/04 06:37:14;;;;;;;4.65;0.82;;;;;;;20.89;50.10;101245.56;16108859;19;130666;-53
2023/08/04 06:42:36;;;;;;;2.40;0.90;;;;;;;20.89;49.48;101251.13;16111599;19;129865;-51
2023/08/04 06:47:58;;;;;;;1.55;0.90;;;;;;;20.88;49.57;101255.00;16112476;19;130634;-49
2023/08/04 06:53:21;;;;;;;5.13;1.10;;;;;;;20.88;49.76;101257.78;16112460;19;130143;-55
2023/08/04 06:58:43;;;;;;;7.43;1.10;;;;;;;20.89;49.76;101262.25;16116548;19;130026;-54
2023/08/04 07:04:06;;;;;;;3.90;1.02;;;;;;;20.89;49.68;101267.81;16127337;19;129513;-50
2023/08/04 07:09:28;;;;;;;2.85;0.80;;;;;;;20.90;49.50;101276.97;16122947;19;129439;-50
2023/08/04 07:14:50;;;;;;;7.35;1.23;;;;;;;20.92;49.65;101282.31;16125652;19;129816;-49
2023/08/04 07:20:12;;;;;;;2.90;1.00;;;;;;;20.94;49.65;101285.66;16120500;19;131340;-50
2023/08/04 07:25:34;;;;;;;4.07;1.10;;;;;;;20.95;49.46;101290.13;16126937;19;129828;-48
2023/08/04 07:30:56;;;;;;;2.55;0.60;;;;;;;20.96;49.69;101273.19;16123158;19;130279;-52
2023/08/04 07:36:18;;;;;;;1.80;0.75;;;;;;;20.97;49.84;101279.59;16126376;19;129862;-49
2023/08/04 07:41:41;;;;;;;1.38;0.70;;;;;;;20.97;49.86;101282.38;16120958;19;131117;-51
2023/08/04 07:47:04;;;;;;;1.73;0.75;;;;;;;20.99;49.74;101291.31;16123875;19;130369;-55
2023/08/04 07:52:26;;;;;;;3.33;0.98;;;;;;;21.08;49.50;101292.56;16117990;19;131372;-52
2023/08/04 07:57:48;;;;;;;2.47;0.90;;;;;;;21.18;49.55;101294.66;16123815;19;129723;-53
2023/08/04 08:03:10;;;;;;;2.85;1.10;;;;;;;21.25;48.95;101300.03;16118029;19;131312;-51
2023/08/04 08:08:32;;;;;;;8.65;1.55;;;;;;;21.31;49.33;101307.34;16121234;19;129482;-53
2023/08/04 08:13:54;;;;;;;4.15;1.17;;;;;;;21.35;48.83;101305.75;16121366;19;130303;-51
2023/08/04 08:19:16;;;;;;;5.57;1.02;;;;;;;21.37;48.79;101311.91;16115410;19;130926;-55
2023/08/04 08:24:38;;;;;;;6.82;1.23;;;;;;;21.37;49.20;101309.13;16118865;19;129725;-55
2023/08/04 08:30:00;;;;;;;3.70;0.95;;;;;;;21.39;49.08;101320.00;16121403;19;130109;-55
2023/08/04 08:35:22;;;;;;;3.88;1.00;;;;;;;21.42;48.98;101316.72;16119093;19;130174;-55
2023/08/04 08:40:48;;;;;;;5.28;1.30;;;;;;;21.45;48.92;101325.38;16122868;19;130979;-53
2023/08/04 08:46:11;;;;;;;4.03;1.20;;;;;;;21.45;48.89;101322.59;16120422;19;129978;-49
2023/08/04 08:51:40;;;;;;;3.33;1.30;;;;;;;21.45;49.01;101335.69;16118906;19;129759;-61
2023/08/04 08:57:03;;;;;;;2.78;1.30;;;;;;;21.41;49.08;101335.38;16117431;19;130678;-51
2023/08/04 09:02:26;;;;;;;3.22;1.15;;;;;;;21.40;49.08;101344.81;16114818;19;131187;-55
2023/08/04 09:07:49;;;;;;;1.95;1.08;;;;;;;21.38;49.10;101349.78;16116050;19;131661;-51
2023/08/04 09:13:12;;;;;;;6.28;1.20;;;;;;;21.36;48.87;101355.59;16118154;19;129306;-55
2023/08/04 09:18:38;;;;;;;4.30;1.20;;;;;;;21.35;49.09;101353.91;16120617;19;131266;-51
2023/08/04 09:24:02;;;;;;;3.70;1.10;;;;;;;21.37;49.23;101357.28;16116838;19;129897;-54
2023/08/04 09:29:24;;;;;;;4.68;1.10;;;;;;;21.42;49.18;101353.72;16112548;19;129626;-55
2023/08/04 09:34:46;;;;;;;5.38;1.15;;;;;;;21.46;49.11;101357.69;16118459;19;129403;-53
2023/08/04 09:40:19;;;;;;;4.82;1.23;;;;;;;21.52;49.27;101365.06;16117530;19;130997;-52
2023/08/04 09:45:41;;;;;;;2.95;1.10;;;;;;;21.59;49.03;101359.31;16117254;19;129633;-52
2023/08/04 09:51:06;;;;;;;3.15;1.35;;;;;;;21.64;48.67;101350.19;16115012;19;129847;-54
2023/08/04 09:56:28;;;;;;;5.03;1.20;;;;;;;21.71;48.60;101356.41;16113942;19;129297;-51
2023/08/04 10:01:52;;;;;;;4.10;1.35;;;;;;;21.76;48.93;101364.00;16117587;19;129762;-55
2023/08/04 10:07:17;;;;;;;4.55;1.23;;;;;;;21.74;48.82;101355.91;16115849;19;130601;-53
2023/08/04 10:12:40;;;;;;;3.92;1.10;;;;;;;21.72;48.84;101358.09;16116999;19;129755;-53
2023/08/04 10:18:03;;;;;;;3.05;1.00;;;;;;;21.73;48.50;101357.00;16112606;19;130443;-50
2023/08/04 10:23:25;;;;;;;3.50;0.98;;;;;;;21.77;48.75;101354.53;16110729;19;130030;-53
2023/08/04 10:29:07;;;;;;;2.67;1.00;;;;;;;21.82;48.55;101363.81;16106134;19;130997;-48
2023/08/04 10:34:31;;;;;;;3.72;1.15;;;;;;;21.83;48.86;101365.50;16136784;19;130383;-54
2023/08/04 10:39:58;;;;;;;2.72;1.10;;;;;;;21.87;48.39;101370.56;16144389;19;130082;-58
2023/08/04 10:45:21;;;;;;;2.20;0.93;;;;;;;21.86;48.61;101375.28;16140083;19;129491;-55
2023/08/04 10:50:43;;;;;;;2.83;0.90;;;;;;;21.86;48.61;101380.00;16143746;19;130099;-55
2023/08/04 10:56:06;;;;;;;2.22;1.10;;;;;;;21.83;48.81;101385.00;16142787;19;129566;-52
2023/08/04 11:01:29;;;;;;;2.53;0.80;;;;;;;21.85;48.41;101383.88;16138766;19;130775;-54
2023/08/04 11:06:51;;;;;;;2.35;1.05;;;;;;;21.86;48.50;101386.41;16145066;19;129655;-55
2023/08/04 11:12:14;;;;;;;2.63;0.98;;;;;;;21.88;48.45;101383.38;16140674;19;129589;-55
2023/08/04 11:17:39;;;;;;;3.85;1.20;;;;;;;21.89;48.51;101385.06;16140561;19;130791;-56
2023/08/04 11:23:02;;;;;;;5.50;1.05;;;;;;;21.90;48.39;101383.97;16141885;19;130734;-55
2023/08/04 11:28:25;;;;;;;2.53;1.15;;;;;;;21.92;48.42;101384.53;16139549;19;129507;-57
2023/08/04 11:33:47;;;;;;;2.30;1.20;;;;;;;21.93;48.26;101380.66;16138999;19;130893;-56
2023/08/04 11:39:10;;;;;;;2.08;1.05;;;;;;;21.91;48.41;101391.22;16134946;19;130711;-55
2023/08/04 11:44:33;;;;;;;3.00;1.30;;;;;;;21.93;48.14;101389.00;16133082;19;129542;-55
2023/08/04 11:49:55;;;;;;;3.63;1.00;;;;;;;21.88;48.01;101389.78;16123118;19;131018;-55
2023/08/04 11:55:17;;;;;;;3.35;1.30;;;;;;;21.84;48.24;101402.56;16123926;19;129741;-56
2023/08/04 12:00:40;;;;;;;3.28;1.00;;;;;;;21.83;48.17;101398.91;16123800;19;130321;-57
2023/08/04 12:06:02;;;;;;;1.98;0.82;;;;;;;21.86;47.93;101402.28;16116543;19;129979;-56
2023/08/04 12:11:26;;;;;;;3.17;0.95;;;;;;;21.86;47.86;101405.91;16120999;19;129351;-54
2023/08/04 12:17:01;;;;;;;2.65;0.90;;;;;;;21.89;47.86;101401.78;16119573;19;130432;-53
2023/08/04 12:22:23;;;;;;;3.75;1.15;;;;;;;21.88;47.94;101416.81;16118624;19;130125;-56
2023/08/04 12:27:46;;;;;;;2.97;1.10;;;;;;;21.85;48.02;101425.66;16118525;19;130965;-54
2023/08/04 12:33:08;;;;;;;4.40;0.90;;;;;;;21.82;47.53;101427.88;16116086;19;130436;-55
2023/08/04 12:38:30;;;;;;;2.30;0.90;;;;;;;21.79;48.08;101428.38;16120360;19;130711;-55
2023/08/04 12:43:52;;;;;;;3.72;1.10;;;;;;;21.79;47.62;101422.81;16119657;19;130690;-52
2023/08/04 12:49:14;;;;;;;2.67;0.93;;;;;;;21.80;47.68;101421.69;16119585;19;131094;-54
2023/08/04 12:54:36;;;;;;;2.90;0.85;;;;;;;21.78;47.88;101418.34;16117142;19;129421;-51
2023/08/04 12:59:58;;;;;;;3.03;1.10;;;;;;;21.77;48.14;101413.88;16116103;19;131516;-52
2023/08/04 13:05:20;;;;;;;3.72;0.90;;;;;;;21.80;47.99;101416.13;16115778;19;131159;-54
2023/08/04 13:10:42;;;;;;;1.30;0.85;;;;;;;21.80;48.08;101423.66;16112719;19;132583;-52
2023/08/04 13:16:05;;;;;;;13.48;1.63;;;;;;;21.82;47.93;101421.47;16117247;19;130364;-53
2023/08/04 13:21:27;;;;;;;9.07;1.73;;;;;;;21.82;48.29;101415.91;16110986;19;132201;-53
2023/08/04 13:26:49;;;;;;;14.50;1.75;;;;;;;21.85;48.51;101425.66;16115087;19;131411;-52
2023/08/04 13:32:12;;;;;;;6.57;1.75;;;;;;;21.86;47.91;101432.94;16116571;19;129652;-55
2023/08/04 13:37:34;;;;;;;7.75;1.40;;;;;;;21.81;48.09;101440.09;16109522;19;134165;-51
2023/08/04 13:42:56;;;;;;;6.97;1.60;;;;;;;21.78;47.68;101445.34;16111363;19;131236;-53
2023/08/04 13:48:18;;;;;;;7.65;1.52;;;;;;;21.74;48.05;101449.72;16112142;19;130736;-54
2023/08/04 13:53:40;;;;;;;7.60;1.63;;;;;;;21.71;47.92;101453.88;16116351;19;129406;-52
2023/08/04 13:59:02;;;;;;;6.32;1.50;;;;;;;21.70;47.88;101466.09;16112411;19;129850;-55
2023/08/04 14:04:25;;;;;;;5.03;1.27;;;;;;;21.65;47.73;101474.41;16115942;19;129939;-55
2023/08/04 14:09:47;;;;;;;4.93;1.20;;;;;;;21.63;47.40;101476.59;16111288;19;129669;-54
2023/08/04 14:15:09;;;;;;;2.50;1.10;;;;;;;21.62;47.45;101463.75;16108148;19;129727;-53
2023/08/04 14:20:31;;;;;;;2.65;1.00;;;;;;;21.60;47.58;101465.94;16116532;19;130413;-55
2023/08/04 14:25:53;;;;;;;2.97;0.93;;;;;;;21.60;47.90;101465.94;16116064;19;131482;-55
2023/08/04 14:31:15;;;;;;;2.85;1.30;;;;;;;21.60;47.55;101461.22;16117837;19;130304;-55
2023/08/04 14:36:38;;;;;;;3.70;1.10;;;;;;;21.58;47.48;101459.78;16114111;19;131099;-52
2023/08/04 14:42:00;;;;;;;2.42;1.05;;;;;;;21.59;47.70;101461.47;16119314;19;133284;-56
2023/08/04 14:47:22;;;;;;;4.85;1.23;;;;;;;21.56;47.67;101456.41;16116916;19;130253;-55
2023/08/04 14:52:44;;;;;;;2.95;1.00;;;;;;;21.58;47.49;101466.22;16109867;19;129789;-54
2023/08/04 14:58:06;;;;;;;3.95;0.90;;;;;;;21.56;47.63;101471.19;16113081;19;129833;-53
2023/08/04 15:03:28;;;;;;;2.60;0.88;;;;;;;21.56;47.44;101470.31;16111223;19;129906;-51
2023/08/04 15:08:50;;;;;;;2.28;1.00;;;;;;;21.55;47.37;101475.06;16111824;19;129678;-53
2023/08/04 15:14:13;;;;;;;2.17;0.90;;;;;;;21.52;47.60;101476.44;16107461;19;131084;-51
2023/08/04 15:19:40;;;;;;;3.95;0.95;;;;;;;21.52;47.50;101476.44;16118380;19;130237;-53
2023/08/04 15:25:03;;;;;;;2.13;0.83;;;;;;;21.50;47.01;101484.19;16127498;19;129710;-52
2023/08/04 15:30:25;;;;;;;2.78;0.80;;;;;;;21.51;47.28;101487.78;16128050;19;129392;-51
2023/08/04 15:35:48;;;;;;;3.15;0.75;;;;;;;21.50;47.17;101489.75;16124251;19;130686;-54
2023/08/04 15:41:10;;;;;;;1.75;0.60;;;;;;;21.49;47.44;101488.06;16121434;19;130244;-54
2023/08/04 15:46:32;;;;;;;3.15;1.00;;;;;;;21.49;47.13;101492.75;16125491;19;129777;-51
2023/08/04 15:51:54;;;;;;;1.80;0.80;;;;;;;21.49;46.85;101492.75;16121313;19;129920;-56
2023/08/04 15:57:16;;;;;;;2.30;0.90;;;;;;;21.48;47.35;101488.25;16119891;19;129691;-53
2023/08/04 16:02:39;;;;;;;1.75;1.00;;;;;;;21.47;47.05;101490.22;16125367;19;129494;-53
2023/08/04 16:08:01;;;;;;;3.50;1.00;;;;;;;21.47;46.98;101495.78;16123719;19;130169;-54
2023/08/04 16:13:24;;;;;;;3.42;0.90;;;;;;;21.46;47.04;101502.44;16120762;19;129009;-55
2023/08/04 16:18:46;;;;;;;3.25;0.80;;;;;;;21.46;46.99;101502.44;16121546;19;129488;-54
2023/08/04 16:24:08;;;;;;;1.98;0.93;;;;;;;21.46;46.99;101504.41;16118316;19;129619;-55
2023/08/04 16:29:32;;;;;;;1.85;0.75;;;;;;;21.45;46.70;101500.75;16111463;19;130839;-52
2023/08/04 16:34:56;;;;;;;2.30;0.90;;;;;;;21.46;46.70;101516.34;16118485;19;135179;-54
2023/08/04 16:40:19;;;;;;;3.70;0.75;;;;;;;21.45;47.00;101520.25;16118008;19;132495;-56
2023/08/04 16:45:42;;;;;;;2.70;0.90;;;;;;;21.44;46.74;101518.53;16105829;19;131948;-53
2023/08/04 16:51:05;;;;;;;2.78;1.10;;;;;;;21.43;46.64;101528.00;16115940;19;131603;-55
2023/08/04 16:56:27;;;;;;;2.35;0.75;;;;;;;21.45;46.60;101524.97;16116223;19;131326;-54
2023/08/04 17:01:49;;;;;;;2.95;1.10;;;;;;;21.46;46.54;101524.72;16112497;19;133860;-53
2023/08/04 17:07:11;;;;;;;4.80;1.10;;;;;;;21.48;46.61;101525.31;16115686;19;129558;-54
2023/08/04 17:12:33;;;;;;;1.20;0.70;;;;;;;21.53;46.26;101538.50;16113599;19;130602;-55
2023/08/04 17:17:55;;;;;;;4.45;0.80;;;;;;;21.56;46.15;101535.22;16113984;19;131933;-56
2023/08/04 17:23:17;;;;;;;3.85;1.15;;;;;;;21.60;46.42;101532.78;16111558;19;129330;-53
2023/08/04 17:28:39;;;;;;;2.22;0.73;;;;;;;21.62;46.59;101541.72;16111389;19;132699;-53
2023/08/04 17:34:02;;;;;;;1.50;0.90;;;;;;;21.61;46.40;101551.16;16112121;19;130399;-56
2023/08/04 17:39:24;;;;;;;2.10;0.70;;;;;;;21.62;46.37;101555.66;16111512;19;130257;-54
2023/08/04 17:44:46;;;;;;;1.20;0.80;;;;;;;21.61;46.45;101551.16;16112490;19;129961;-55
2023/08/04 17:50:08;;;;;;;1.92;1.00;;;;;;;21.60;46.28;101557.84;16108397;19;131963;-53
2023/08/04 17:55:31;;;;;;;2.88;0.80;;;;;;;21.55;46.43;101557.72;16110273;19;129311;-56
2023/08/04 18:00:55;;;;;;;2.40;1.10;;;;;;;21.52;46.33;101557.16;16107668;19;129858;-55
2023/08/04 18:06:17;;;;;;;1.00;0.80;;;;;;;21.48;46.21;101567.06;16111244;19;129883;-50
2023/08/04 18:11:39;;;;;;;6.50;0.95;;;;;;;21.47;46.41;101578.47;16111718;19;135218;-49
2023/08/04 18:17:03;;;;;;;11.30;1.20;;;;;;;21.47;46.93;101584.88;16107187;19;130434;-55
2023/08/04 18:22:25;;;;;;;23.45;2.00;;;;;;;21.46;46.65;101588.72;16105607;19;129871;-53
2023/08/04 18:27:47;;;;;;;11.60;1.50;;;;;;;21.46;46.75;101587.91;16109680;19;129719;-50
2023/08/04 18:33:09;;;;;;;11.50;1.55;;;;;;;21.44;46.77;101585.34;16106102;19;131200;-55
2023/08/04 18:38:31;;;;;;;12.10;1.92;;;;;;;21.45;47.36;101594.56;16099665;19;130324;-51
2023/08/04 18:43:54;;;;;;;10.65;1.45;;;;;;;21.43;47.25;101599.53;16101061;19;131029;-51
2023/08/04 18:49:16;;;;;;;17.48;1.50;;;;;;;21.41;47.38;101601.72;16105011;19;130637;-55
2023/08/04 18:54:38;;;;;;;15.15;1.90;;;;;;;21.40;47.82;101606.44;16118522;19;130943;-54
2023/08/04 19:00:00;;;;;;;17.45;1.73;;;;;;;21.41;47.50;101613.72;16125232;19;129847;-54
2023/08/04 19:05:22;;;;;;;9.25;1.90;;;;;;;21.41;47.86;101616.50;16117193;19;130338;-54
2023/08/04 19:10:44;;;;;;;9.25;1.52;;;;;;;21.40;48.46;101623.16;16126290;19;130368;-55
2023/08/04 19:16:10;;;;;;;12.57;1.63;;;;;;;21.39;48.54;101632.59;16121879;19;129861;-55
2023/08/04 19:21:33;;;;;;;9.20;1.35;;;;;;;21.39;48.31;101629.81;16122446;19;131014;-55
2023/08/04 19:26:55;;;;;;;9.50;1.60;;;;;;;21.40;49.05;101634.28;16125545;19;129945;-54
2023/08/04 19:32:17;;;;;;;15.18;1.85;;;;;;;21.40;49.33;101656.56;16111337;19;131156;-53
2023/08/04 19:37:39;;;;;;;24.40;2.97;;;;;;;21.41;48.99;101654.59;16121832;19;130687;-54
2023/08/04 19:43:01;;;;;;;19.05;1.90;;;;;;;21.42;49.15;101668.25;16117910;19;130153;-52
2023/08/04 19:48:23;;;;;;;19.10;1.85;;;;;;;21.43;49.59;101671.91;16116390;19;130426;-49
2023/08/04 19:53:46;;;;;;;22.40;3.22;;;;;;;21.42;49.54;101676.59;16114943;19;130277;-50
2023/08/04 19:59:08;;;;;;;15.85;2.42;;;;;;;21.44;49.86;101680.00;16113869;19;130240;-54
2023/08/04 20:04:30;;;;;;;17.95;1.98;;;;;;;21.45;49.38;101673.34;16110922;19;130002;-52
2023/08/04 20:09:52;;;;;;;19.98;2.10;;;;;;;21.46;50.15;101680.59;16118912;19;130398;-49
2023/08/04 20:15:15;;;;;;;12.73;1.98;;;;;;;21.45;50.25;101686.44;16112571;19;131010;-53
2023/08/04 20:20:37;;;;;;;24.00;2.08;;;;;;;21.45;50.28;101687.25;16100545;19;134949;-48
2023/08/04 20:26:01;;;;;;;18.73;2.38;;;;;;;21.45;49.89;101683.63;16110419;19;134698;-51
2023/08/04 20:31:23;;;;;;;14.82;2.30;;;;;;;21.44;49.89;101676.38;16104707;19;130346;-53
2023/08/04 20:36:45;;;;;;;13.52;1.92;;;;;;;21.41;49.85;101674.94;16112028;19;130914;-51
2023/08/04 20:42:10;;;;;;;20.27;2.05;;;;;;;21.38;49.63;101681.00;16111645;19;131329;-49
2023/08/04 20:47:32;;;;;;;9.80;1.75;;;;;;;21.36;50.04;101677.63;16106916;19;130576;-48
2023/08/04 20:52:54;;;;;;;14.15;2.17;;;;;;;21.34;49.81;101679.78;16114178;19;131011;-52
2023/08/04 20:58:17;;;;;;;14.88;1.83;;;;;;;21.33;50.00;101686.44;16109891;19;130462;-53
2023/08/04 21:03:41;;;;;;;17.23;2.17;;;;;;;21.30;49.83;101684.16;16111810;19;130063;-51
2023/08/04 21:09:04;;;;;;;10.52;1.80;;;;;;;21.29;50.28;101688.06;16111781;19;129846;-54
2023/08/04 21:14:26;;;;;;;14.38;2.05;;;;;;;21.26;50.38;101683.81;16113301;19;130713;-51
2023/08/04 21:19:49;;;;;;;9.90;1.55;;;;;;;21.24;50.48;101687.94;16111190;19;130116;-53
2023/08/04 21:25:11;;;;;;;12.63;1.70;;;;;;;21.21;50.34;101690.09;16111954;19;129937;-52
2023/08/04 21:30:43;;;;;;;8.45;1.38;;;;;;;21.21;50.48;101694.84;16109570;19;130346;-53
2023/08/04 21:36:05;;;;;;;11.88;1.42;;;;;;;21.19;50.15;101689.50;16112188;19;131057;-49
2023/08/04 21:41:27;;;;;;;8.95;1.70;;;;;;;21.19;50.24;101694.22;16110535;19;130328;-49
2023/08/04 21:46:49;;;;;;;10.60;1.63;;;;;;;21.18;50.50;101698.09;16112798;19;131302;-54
2023/08/04 21:52:12;;;;;;;6.50;1.55;;;;;;;21.16;50.27;101703.94;16112369;19;131208;-48
2023/08/04 21:57:34;;;;;;;5.63;1.40;;;;;;;21.16;50.64;101695.59;16111640;19;129874;-48
2023/08/04 22:02:56;;;;;;;7.50;1.40;;;;;;;21.14;50.59;101694.97;16113102;19;130539;-48
2023/08/04 22:08:18;;;;;;;9.82;1.30;;;;;;;21.13;50.65;101698.84;16109974;19;129738;-52
2023/08/04 22:13:40;;;;;;;7.50;1.80;;;;;;;21.13;50.85;101697.97;16109053;19;129545;-51
2023/08/04 22:19:05;;;;;;;10.35;2.00;;;;;;;21.12;50.61;101699.94;16112494;19;129686;-48
2023/08/04 22:24:28;;;;;;;12.75;1.77;;;;;;;21.11;50.61;101694.63;16110630;19;131446;-52
2023/08/04 22:29:49;;;;;;;10.98;1.38;;;;;;;21.10;50.45;101696.53;16108597;19;129784;-51
2023/08/04 22:35:11;;;;;;;7.15;1.40;;;;;;;21.09;50.71;101700.41;16107902;19;130532;-49
2023/08/04 22:40:34;;;;;;;4.82;1.60;;;;;;;21.09;50.71;101700.41;16103697;19;130163;-49
2023/08/04 22:45:55;;;;;;;4.53;1.40;;;;;;;21.08;51.00;101704.28;16105855;19;129923;-53
2023/08/04 22:51:17;;;;;;;7.97;1.30;;;;;;;21.07;50.62;101697.03;16107288;19;129832;-49
2023/08/04 22:56:40;;;;;;;5.47;1.00;;;;;;;21.07;51.15;101691.47;16108398;19;134795;-49
2023/08/04 23:02:02;;;;;;;5.43;1.10;;;;;;;21.06;50.81;101695.34;16103929;19;129497;-55
2023/08/04 23:07:27;;;;;;;6.05;1.13;;;;;;;21.05;50.76;101699.19;16100974;19;131694;-49
2023/08/04 23:12:49;;;;;;;4.75;0.95;;;;;;;21.03;50.94;101701.41;16105779;19;129384;-53
2023/08/04 23:18:11;;;;;;;4.40;1.23;;;;;;;21.02;50.97;101697.75;16101656;19;130712;-53
2023/08/04 23:23:33;;;;;;;7.45;1.30;;;;;;;21.01;51.33;101693.28;16104770;19;130993;-53
2023/08/04 23:28:55;;;;;;;4.40;0.93;;;;;;;21.01;51.25;101686.88;16106014;19;130151;-53
2023/08/04 23:34:17;;;;;;;2.97;0.98;;;;;;;21.02;51.16;101683.03;16104099;19;130547;-53
2023/08/04 23:39:39;;;;;;;5.65;1.05;;;;;;;21.01;51.31;101678.53;16110071;19;129476;-53
2023/08/04 23:45:01;;;;;;;5.38;1.10;;;;;;;20.99;51.03;101675.16;16121361;19;130288;-53
2023/08/04 23:50:23;;;;;;;4.28;1.08;;;;;;;20.98;51.26;101665.97;16119419;19;130310;-54
2023/08/04 23:55:45;;;;;;;2.65;0.80;;;;;;;20.97;51.22;101652.28;16122019;19;129990;-61
